sensor_id;sensor_type;location;lat;lon;timestamp;P1;durP1;ratioP1;P2;durP2;ratioP2
27666;SDS011;15074;50.940;5.282;2022-10-30T00:00:51;11.40;;;6.55;;
27666;SDS011;15074;50.940;5.282;2022-10-30T00:03:16;10.68;;;6.95;;
27666;SDS011;15074;50.940;5.282;2022-10-30T00:05:43;9.55;;;7.18;;
27666;SDS011;15074;50.940;5.282;2022-10-30T00:08:13;10.73;;;6.60;;
27666;SDS011;15074;50.940;5.282;2022-10-30T00:10:41;9.63;;;7.07;;
27666;SDS011;15074;50.940;5.282;2022-10-30T00:13:08;14.33;;;7.33;;
27666;SDS011;15074;50.940;5.282;2022-10-30T00:15:34;10.32;;;7.20;;
27666;SDS011;15074;50.940;5.282;2022-10-30T00:18:00;13.20;;;7.22;;
27666;SDS011;15074;50.940;5.282;2022-10-30T00:20:26;19.48;;;7.68;;
27666;SDS011;15074;50.940;5.282;2022-10-30T00:22:52;12.45;;;7.40;;
27666;SDS011;15074;50.940;5.282;2022-10-30T00:25:18;15.57;;;7.15;;
27666;SDS011;15074;50.940;5.282;2022-10-30T00:27:44;10.75;;;6.85;;
27666;SDS011;15074;50.940;5.282;2022-10-30T00:30:10;10.02;;;6.43;;
27666;SDS011;15074;50.940;5.282;2022-10-30T00:32:35;10.15;;;7.05;;
27666;SDS011;15074;50.940;5.282;2022-10-30T00:35:01;11.27;;;7.50;;
27666;SDS011;15074;50.940;5.282;2022-10-30T00:37:27;13.10;;;7.28;;
27666;SDS011;15074;50.940;5.282;2022-10-30T00:39:53;13.88;;;7.15;;
27666;SDS011;15074;50.940;5.282;2022-10-30T00:42:18;13.40;;;7.90;;
27666;SDS011;15074;50.940;5.282;2022-10-30T00:44:46;10.68;;;7.35;;
27666;SDS011;15074;50.940;5.282;2022-10-30T00:47:22;20.80;;;7.55;;
27666;SDS011;15074;50.940;5.282;2022-10-30T00:49:53;12.18;;;6.97;;
27666;SDS011;15074;50.940;5.282;2022-10-30T00:52:28;10.30;;;7.68;;
27666;SDS011;15074;50.940;5.282;2022-10-30T00:54:57;12.50;;;7.32;;
27666;SDS011;15074;50.940;5.282;2022-10-30T00:57:27;11.68;;;7.25;;
27666;SDS011;15074;50.940;5.282;2022-10-30T00:59:53;13.98;;;6.95;;
27666;SDS011;15074;50.940;5.282;2022-10-30T01:02:19;22.15;;;8.50;;
27666;SDS011;15074;50.940;5.282;2022-10-30T01:04:45;9.05;;;7.28;;
27666;SDS011;15074;50.940;5.282;2022-10-30T01:07:14;9.52;;;8.10;;
27666;SDS011;15074;50.940;5.282;2022-10-30T01:09:40;11.57;;;7.60;;
27666;SDS011;15074;50.940;5.282;2022-10-30T01:12:07;8.82;;;6.80;;
27666;SDS011;15074;50.940;5.282;2022-10-30T01:14:33;13.13;;;8.38;;
27666;SDS011;15074;50.940;5.282;2022-10-30T01:17:18;11.57;;;7.90;;
27666;SDS011;15074;50.940;5.282;2022-10-30T01:26:02;15.85;;;7.38;;
27666;SDS011;15074;50.940;5.282;2022-10-30T01:32:01;10.63;;;6.90;;
27666;SDS011;15074;50.940;5.282;2022-10-30T01:34:40;12.10;;;7.43;;
27666;SDS011;15074;50.940;5.282;2022-10-30T01:37:35;12.00;;;7.53;;
27666;SDS011;15074;50.940;5.282;2022-10-30T01:40:28;12.77;;;8.32;;
27666;SDS011;15074;50.940;5.282;2022-10-30T01:42:55;9.80;;;7.28;;
27666;SDS011;15074;50.940;5.282;2022-10-30T01:47:55;9.25;;;6.40;;
27666;SDS011;15074;50.940;5.282;2022-10-30T01:50:34;16.00;;;6.88;;
27666;SDS011;15074;50.940;5.282;2022-10-30T01:58:54;14.35;;;6.85;;
27666;SDS011;15074;50.940;5.282;2022-10-30T02:01:31;13.25;;;7.88;;
27666;SDS011;15074;50.940;5.282;2022-10-30T02:03:59;12.10;;;6.88;;
27666;SDS011;15074;50.940;5.282;2022-10-30T02:06:26;11.57;;;7.35;;
27666;SDS011;15074;50.940;5.282;2022-10-30T02:08:54;10.10;;;7.30;;
27666;SDS011;15074;50.940;5.282;2022-10-30T02:11:21;11.07;;;6.55;;
27666;SDS011;15074;50.940;5.282;2022-10-30T02:13:48;13.70;;;6.72;;
27666;SDS011;15074;50.940;5.282;2022-10-30T02:18:42;10.35;;;6.70;;
27666;SDS011;15074;50.940;5.282;2022-10-30T02:21:07;12.02;;;7.15;;
27666;SDS011;15074;50.940;5.282;2022-10-30T02:23:33;14.68;;;7.30;;
27666;SDS011;15074;50.940;5.282;2022-10-30T02:25:59;11.45;;;6.90;;
27666;SDS011;15074;50.940;5.282;2022-10-30T02:28:25;10.93;;;7.30;;
27666;SDS011;15074;50.940;5.282;2022-10-30T02:30:50;15.90;;;7.55;;
27666;SDS011;15074;50.940;5.282;2022-10-30T02:33:16;16.98;;;7.03;;
27666;SDS011;15074;50.940;5.282;2022-10-30T02:35:42;10.77;;;7.35;;
27666;SDS011;15074;50.940;5.282;2022-10-30T02:38:08;11.60;;;7.22;;
27666;SDS011;15074;50.940;5.282;2022-10-30T02:40:33;13.20;;;7.43;;
27666;SDS011;15074;50.940;5.282;2022-10-30T02:42:59;15.77;;;7.75;;
27666;SDS011;15074;50.940;5.282;2022-10-30T02:45:24;11.98;;;7.03;;
27666;SDS011;15074;50.940;5.282;2022-10-30T02:47:50;15.05;;;7.72;;
27666;SDS011;15074;50.940;5.282;2022-10-30T02:50:16;9.50;;;7.10;;
27666;SDS011;15074;50.940;5.282;2022-10-30T02:52:41;10.48;;;7.13;;
27666;SDS011;15074;50.940;5.282;2022-10-30T02:55:07;9.77;;;7.03;;
27666;SDS011;15074;50.940;5.282;2022-10-30T02:57:33;10.10;;;7.28;;
27666;SDS011;15074;50.940;5.282;2022-10-30T02:59:58;12.77;;;7.78;;
27666;SDS011;15074;50.940;5.282;2022-10-30T03:02:25;12.68;;;6.85;;
27666;SDS011;15074;50.940;5.282;2022-10-30T03:04:50;11.98;;;7.82;;
27666;SDS011;15074;50.940;5.282;2022-10-30T03:07:16;15.77;;;8.25;;
27666;SDS011;15074;50.940;5.282;2022-10-30T03:09:42;8.57;;;7.38;;
27666;SDS011;15074;50.940;5.282;2022-10-30T03:12:07;12.55;;;7.85;;
27666;SDS011;15074;50.940;5.282;2022-10-30T03:14:33;11.60;;;7.43;;
27666;SDS011;15074;50.940;5.282;2022-10-30T03:16:59;14.35;;;7.57;;
27666;SDS011;15074;50.940;5.282;2022-10-30T03:19:24;8.77;;;6.88;;
27666;SDS011;15074;50.940;5.282;2022-10-30T03:21:50;10.55;;;7.15;;
27666;SDS011;15074;50.940;5.282;2022-10-30T03:24:17;10.50;;;6.72;;
27666;SDS011;15074;50.940;5.282;2022-10-30T03:26:43;9.50;;;7.30;;
27666;SDS011;15074;50.940;5.282;2022-10-30T03:29:08;15.05;;;8.40;;
27666;SDS011;15074;50.940;5.282;2022-10-30T03:31:34;9.30;;;7.07;;
27666;SDS011;15074;50.940;5.282;2022-10-30T03:34:00;10.18;;;7.72;;
27666;SDS011;15074;50.940;5.282;2022-10-30T03:36:25;15.52;;;7.97;;
27666;SDS011;15074;50.940;5.282;2022-10-30T03:38:51;10.32;;;7.78;;
27666;SDS011;15074;50.940;5.282;2022-10-30T03:41:17;10.70;;;6.72;;
27666;SDS011;15074;50.940;5.282;2022-10-30T03:43:42;11.73;;;6.93;;
27666;SDS011;15074;50.940;5.282;2022-10-30T03:46:08;11.13;;;7.13;;
27666;SDS011;15074;50.940;5.282;2022-10-30T03:48:35;13.13;;;7.18;;
27666;SDS011;15074;50.940;5.282;2022-10-30T03:51:01;10.95;;;6.80;;
27666;SDS011;15074;50.940;5.282;2022-10-30T03:53:27;19.88;;;7.72;;
27666;SDS011;15074;50.940;5.282;2022-10-30T03:55:56;8.57;;;7.00;;
27666;SDS011;15074;50.940;5.282;2022-10-30T03:58:23;8.98;;;7.20;;
27666;SDS011;15074;50.940;5.282;2022-10-30T04:00:50;12.98;;;7.45;;
27666;SDS011;15074;50.940;5.282;2022-10-30T04:03:16;10.15;;;7.03;;
27666;SDS011;15074;50.940;5.282;2022-10-30T04:05:41;10.18;;;7.88;;
27666;SDS011;15074;50.940;5.282;2022-10-30T04:08:09;9.60;;;6.65;;
27666;SDS011;15074;50.940;5.282;2022-10-30T04:10:40;17.75;;;7.70;;
27666;SDS011;15074;50.940;5.282;2022-10-30T04:13:10;11.65;;;6.95;;
27666;SDS011;15074;50.940;5.282;2022-10-30T04:15:37;10.93;;;6.80;;
27666;SDS011;15074;50.940;5.282;2022-10-30T04:18:02;10.98;;;6.60;;
27666;SDS011;15074;50.940;5.282;2022-10-30T04:20:28;8.85;;;6.45;;
27666;SDS011;15074;50.940;5.282;2022-10-30T04:22:58;8.13;;;6.15;;
27666;SDS011;15074;50.940;5.282;2022-10-30T04:25:25;11.10;;;7.22;;
27666;SDS011;15074;50.940;5.282;2022-10-30T04:27:53;11.98;;;7.18;;
27666;SDS011;15074;50.940;5.282;2022-10-30T04:30:19;9.95;;;7.03;;
27666;SDS011;15074;50.940;5.282;2022-10-30T04:32:46;11.82;;;7.65;;
27666;SDS011;15074;50.940;5.282;2022-10-30T04:35:16;11.02;;;7.82;;
27666;SDS011;15074;50.940;5.282;2022-10-30T04:37:50;13.93;;;7.07;;
27666;SDS011;15074;50.940;5.282;2022-10-30T04:40:18;11.27;;;7.38;;
27666;SDS011;15074;50.940;5.282;2022-10-30T04:42:45;11.80;;;7.07;;
27666;SDS011;15074;50.940;5.282;2022-10-30T04:45:11;7.95;;;6.63;;
27666;SDS011;15074;50.940;5.282;2022-10-30T04:47:37;11.38;;;7.63;;
27666;SDS011;15074;50.940;5.282;2022-10-30T04:50:03;9.68;;;7.60;;
27666;SDS011;15074;50.940;5.282;2022-10-30T04:52:28;9.48;;;7.03;;
27666;SDS011;15074;50.940;5.282;2022-10-30T04:54:54;12.90;;;7.60;;
27666;SDS011;15074;50.940;5.282;2022-10-30T04:57:20;16.80;;;7.97;;
27666;SDS011;15074;50.940;5.282;2022-10-30T04:59:45;10.48;;;7.88;;
27666;SDS011;15074;50.940;5.282;2022-10-30T05:02:11;13.07;;;7.22;;
27666;SDS011;15074;50.940;5.282;2022-10-30T05:04:36;12.02;;;7.82;;
27666;SDS011;15074;50.940;5.282;2022-10-30T05:07:02;22.38;;;7.70;;
27666;SDS011;15074;50.940;5.282;2022-10-30T05:09:28;8.80;;;7.18;;
27666;SDS011;15074;50.940;5.282;2022-10-30T05:11:54;10.98;;;6.88;;
27666;SDS011;15074;50.940;5.282;2022-10-30T05:14:19;10.65;;;6.72;;
27666;SDS011;15074;50.940;5.282;2022-10-30T05:16:45;10.02;;;7.15;;
27666;SDS011;15074;50.940;5.282;2022-10-30T05:19:11;10.15;;;7.32;;
27666;SDS011;15074;50.940;5.282;2022-10-30T05:21:36;11.15;;;8.13;;
27666;SDS011;15074;50.940;5.282;2022-10-30T05:24:02;10.75;;;7.25;;
27666;SDS011;15074;50.940;5.282;2022-10-30T05:26:28;19.70;;;8.10;;
27666;SDS011;15074;50.940;5.282;2022-10-30T05:28:53;15.38;;;8.30;;
27666;SDS011;15074;50.940;5.282;2022-10-30T05:31:19;9.95;;;6.97;;
27666;SDS011;15074;50.940;5.282;2022-10-30T05:33:44;11.15;;;7.43;;
27666;SDS011;15074;50.940;5.282;2022-10-30T05:36:10;9.25;;;7.53;;
27666;SDS011;15074;50.940;5.282;2022-10-30T05:38:35;13.20;;;8.63;;
27666;SDS011;15074;50.940;5.282;2022-10-30T05:41:01;15.65;;;8.38;;
27666;SDS011;15074;50.940;5.282;2022-10-30T05:43:27;18.50;;;8.13;;
27666;SDS011;15074;50.940;5.282;2022-10-30T05:45:52;9.48;;;8.02;;
27666;SDS011;15074;50.940;5.282;2022-10-30T05:48:18;10.07;;;8.05;;
27666;SDS011;15074;50.940;5.282;2022-10-30T05:50:43;13.57;;;8.13;;
27666;SDS011;15074;50.940;5.282;2022-10-30T05:53:09;11.88;;;7.93;;
27666;SDS011;15074;50.940;5.282;2022-10-30T05:55:35;9.68;;;8.02;;
27666;SDS011;15074;50.940;5.282;2022-10-30T05:58:01;8.93;;;7.90;;
27666;SDS011;15074;50.940;5.282;2022-10-30T06:00:29;14.32;;;7.93;;
27666;SDS011;15074;50.940;5.282;2022-10-30T06:03:03;12.23;;;8.10;;
27666;SDS011;15074;50.940;5.282;2022-10-30T06:05:32;13.85;;;7.70;;
27666;SDS011;15074;50.940;5.282;2022-10-30T06:10:25;11.25;;;8.38;;
27666;SDS011;15074;50.940;5.282;2022-10-30T06:13:01;14.10;;;8.82;;
27666;SDS011;15074;50.940;5.282;2022-10-30T06:15:28;11.02;;;8.32;;
27666;SDS011;15074;50.940;5.282;2022-10-30T06:17:55;12.15;;;8.05;;
27666;SDS011;15074;50.940;5.282;2022-10-30T06:20:21;9.23;;;7.95;;
27666;SDS011;15074;50.940;5.282;2022-10-30T06:25:34;10.85;;;8.63;;
27666;SDS011;15074;50.940;5.282;2022-10-30T06:28:00;14.07;;;8.52;;
27666;SDS011;15074;50.940;5.282;2022-10-30T06:30:27;11.45;;;8.20;;
27666;SDS011;15074;50.940;5.282;2022-10-30T06:33:00;10.27;;;7.72;;
27666;SDS011;15074;50.940;5.282;2022-10-30T06:35:27;10.48;;;7.93;;
27666;SDS011;15074;50.940;5.282;2022-10-30T06:37:53;13.35;;;8.73;;
27666;SDS011;15074;50.940;5.282;2022-10-30T06:40:20;11.70;;;8.75;;
27666;SDS011;15074;50.940;5.282;2022-10-30T06:42:48;9.00;;;8.07;;
27666;SDS011;15074;50.940;5.282;2022-10-30T06:45:16;14.68;;;7.90;;
27666;SDS011;15074;50.940;5.282;2022-10-30T06:47:44;12.20;;;8.68;;
27666;SDS011;15074;50.940;5.282;2022-10-30T06:50:12;10.45;;;9.18;;
27666;SDS011;15074;50.940;5.282;2022-10-30T06:52:40;19.15;;;9.15;;
27666;SDS011;15074;50.940;5.282;2022-10-30T06:55:06;12.45;;;8.00;;
27666;SDS011;15074;50.940;5.282;2022-10-30T06:57:32;11.25;;;8.02;;
27666;SDS011;15074;50.940;5.282;2022-10-30T06:59:58;11.38;;;7.97;;
27666;SDS011;15074;50.940;5.282;2022-10-30T07:02:23;11.30;;;8.00;;
27666;SDS011;15074;50.940;5.282;2022-10-30T07:04:49;12.55;;;8.63;;
27666;SDS011;15074;50.940;5.282;2022-10-30T07:07:15;19.95;;;8.63;;
27666;SDS011;15074;50.940;5.282;2022-10-30T07:09:40;13.88;;;7.70;;
27666;SDS011;15074;50.940;5.282;2022-10-30T07:12:13;25.58;;;9.55;;
27666;SDS011;15074;50.940;5.282;2022-10-30T07:14:38;11.73;;;9.65;;
27666;SDS011;15074;50.940;5.282;2022-10-30T07:17:04;15.73;;;8.45;;
27666;SDS011;15074;50.940;5.282;2022-10-30T07:19:30;14.13;;;9.23;;
27666;SDS011;15074;50.940;5.282;2022-10-30T07:21:55;16.58;;;9.52;;
27666;SDS011;15074;50.940;5.282;2022-10-30T07:24:21;11.77;;;9.38;;
27666;SDS011;15074;50.940;5.282;2022-10-30T07:26:47;13.80;;;9.15;;
27666;SDS011;15074;50.940;5.282;2022-10-30T07:29:12;13.13;;;8.63;;
27666;SDS011;15074;50.940;5.282;2022-10-30T07:31:38;9.98;;;8.25;;
27666;SDS011;15074;50.940;5.282;2022-10-30T07:34:03;12.52;;;7.65;;
27666;SDS011;15074;50.940;5.282;2022-10-30T07:36:29;14.93;;;8.77;;
27666;SDS011;15074;50.940;5.282;2022-10-30T07:39:01;13.52;;;8.10;;
27666;SDS011;15074;50.940;5.282;2022-10-30T07:41:27;8.93;;;8.02;;
27666;SDS011;15074;50.940;5.282;2022-10-30T07:43:52;24.23;;;7.75;;
27666;SDS011;15074;50.940;5.282;2022-10-30T07:46:18;10.18;;;7.55;;
27666;SDS011;15074;50.940;5.282;2022-10-30T07:48:44;11.38;;;7.72;;
27666;SDS011;15074;50.940;5.282;2022-10-30T07:51:10;8.90;;;7.40;;
27666;SDS011;15074;50.940;5.282;2022-10-30T07:53:35;9.50;;;6.78;;
27666;SDS011;15074;50.940;5.282;2022-10-30T07:56:01;14.27;;;7.35;;
27666;SDS011;15074;50.940;5.282;2022-10-30T07:58:26;9.55;;;6.35;;
27666;SDS011;15074;50.940;5.282;2022-10-30T08:00:52;14.13;;;7.43;;
27666;SDS011;15074;50.940;5.282;2022-10-30T08:03:18;11.35;;;6.15;;
27666;SDS011;15074;50.940;5.282;2022-10-30T08:05:44;7.55;;;5.90;;
27666;SDS011;15074;50.940;5.282;2022-10-30T08:08:09;8.43;;;6.15;;
27666;SDS011;15074;50.940;5.282;2022-10-30T08:10:35;12.13;;;5.95;;
27666;SDS011;15074;50.940;5.282;2022-10-30T08:13:01;14.50;;;6.22;;
27666;SDS011;15074;50.940;5.282;2022-10-30T08:15:27;12.15;;;6.00;;
27666;SDS011;15074;50.940;5.282;2022-10-30T08:17:53;9.50;;;6.65;;
27666;SDS011;15074;50.940;5.282;2022-10-30T08:20:20;11.82;;;6.07;;
27666;SDS011;15074;50.940;5.282;2022-10-30T08:22:54;10.10;;;6.10;;
27666;SDS011;15074;50.940;5.282;2022-10-30T08:25:22;8.02;;;6.05;;
27666;SDS011;15074;50.940;5.282;2022-10-30T08:27:50;12.20;;;5.47;;
27666;SDS011;15074;50.940;5.282;2022-10-30T08:30:27;8.60;;;5.40;;
27666;SDS011;15074;50.940;5.282;2022-10-30T08:32:57;6.97;;;4.78;;
27666;SDS011;15074;50.940;5.282;2022-10-30T08:35:24;13.05;;;5.15;;
27666;SDS011;15074;50.940;5.282;2022-10-30T08:37:53;13.75;;;4.72;;
27666;SDS011;15074;50.940;5.282;2022-10-30T08:40:20;11.55;;;5.57;;
27666;SDS011;15074;50.940;5.282;2022-10-30T08:42:50;8.23;;;5.13;;
27666;SDS011;15074;50.940;5.282;2022-10-30T08:45:17;9.20;;;4.88;;
27666;SDS011;15074;50.940;5.282;2022-10-30T08:47:43;7.57;;;4.53;;
27666;SDS011;15074;50.940;5.282;2022-10-30T08:50:09;8.05;;;4.45;;
27666;SDS011;15074;50.940;5.282;2022-10-30T08:52:35;9.25;;;4.88;;
27666;SDS011;15074;50.940;5.282;2022-10-30T08:55:01;6.97;;;4.40;;
27666;SDS011;15074;50.940;5.282;2022-10-30T08:57:27;11.85;;;4.80;;
27666;SDS011;15074;50.940;5.282;2022-10-30T08:59:52;6.85;;;4.68;;
27666;SDS011;15074;50.940;5.282;2022-10-30T09:02:18;9.07;;;4.93;;
27666;SDS011;15074;50.940;5.282;2022-10-30T09:04:43;11.80;;;5.13;;
27666;SDS011;15074;50.940;5.282;2022-10-30T09:07:09;10.27;;;4.75;;
27666;SDS011;15074;50.940;5.282;2022-10-30T09:09:35;11.15;;;4.40;;
27666;SDS011;15074;50.940;5.282;2022-10-30T09:12:00;9.65;;;4.13;;
27666;SDS011;15074;50.940;5.282;2022-10-30T09:14:26;6.75;;;4.13;;
27666;SDS011;15074;50.940;5.282;2022-10-30T09:16:53;6.40;;;3.88;;
27666;SDS011;15074;50.940;5.282;2022-10-30T09:19:19;9.70;;;4.90;;
27666;SDS011;15074;50.940;5.282;2022-10-30T09:21:44;6.93;;;3.63;;
27666;SDS011;15074;50.940;5.282;2022-10-30T09:24:10;7.78;;;4.20;;
27666;SDS011;15074;50.940;5.282;2022-10-30T09:26:35;8.13;;;4.10;;
27666;SDS011;15074;50.940;5.282;2022-10-30T09:29:01;6.10;;;3.83;;
27666;SDS011;15074;50.940;5.282;2022-10-30T09:31:27;8.45;;;4.47;;
27666;SDS011;15074;50.940;5.282;2022-10-30T09:33:53;8.20;;;3.75;;
27666;SDS011;15074;50.940;5.282;2022-10-30T09:36:18;6.88;;;3.63;;
27666;SDS011;15074;50.940;5.282;2022-10-30T09:38:44;6.80;;;4.25;;
27666;SDS011;15074;50.940;5.282;2022-10-30T09:44:37;8.57;;;4.78;;
27666;SDS011;15074;50.940;5.282;2022-10-30T09:50:10;6.47;;;4.00;;
27666;SDS011;15074;50.940;5.282;2022-10-30T09:55:46;11.27;;;4.40;;
27666;SDS011;15074;50.940;5.282;2022-10-30T10:01:13;6.80;;;3.80;;
27666;SDS011;15074;50.940;5.282;2022-10-30T10:06:36;7.72;;;3.95;;
27666;SDS011;15074;50.940;5.282;2022-10-30T10:09:29;7.40;;;4.00;;
27666;SDS011;15074;50.940;5.282;2022-10-30T10:12:03;9.65;;;4.45;;
27666;SDS011;15074;50.940;5.282;2022-10-30T10:14:36;8.50;;;4.22;;
27666;SDS011;15074;50.940;5.282;2022-10-30T10:17:09;8.23;;;3.75;;
27666;SDS011;15074;50.940;5.282;2022-10-30T10:19:39;7.38;;;4.20;;
27666;SDS011;15074;50.940;5.282;2022-10-30T10:22:24;7.35;;;3.50;;
27666;SDS011;15074;50.940;5.282;2022-10-30T10:24:58;12.00;;;3.85;;
27666;SDS011;15074;50.940;5.282;2022-10-30T10:30:18;6.97;;;3.28;;
27666;SDS011;15074;50.940;5.282;2022-10-30T10:35:22;7.57;;;3.25;;
27666;SDS011;15074;50.940;5.282;2022-10-30T10:38:16;10.70;;;3.20;;
27666;SDS011;15074;50.940;5.282;2022-10-30T10:52:09;9.50;;;3.88;;
27666;SDS011;15074;50.940;5.282;2022-10-30T10:54:41;14.68;;;3.97;;
27666;SDS011;15074;50.940;5.282;2022-10-30T10:57:29;7.22;;;4.03;;
27666;SDS011;15074;50.940;5.282;2022-10-30T11:00:03;8.32;;;4.20;;
27666;SDS011;15074;50.940;5.282;2022-10-30T11:02:45;5.47;;;3.40;;
27666;SDS011;15074;50.940;5.282;2022-10-30T11:07:50;6.78;;;3.60;;
27666;SDS011;15074;50.940;5.282;2022-10-30T11:10:18;6.65;;;4.10;;
27666;SDS011;15074;50.940;5.282;2022-10-30T11:12:44;9.27;;;4.07;;
27666;SDS011;15074;50.940;5.282;2022-10-30T11:18:01;10.13;;;3.35;;
27666;SDS011;15074;50.940;5.282;2022-10-30T11:20:34;6.57;;;3.50;;
27666;SDS011;15074;50.940;5.282;2022-10-30T11:25:56;8.07;;;3.60;;
27666;SDS011;15074;50.940;5.282;2022-10-30T11:28:31;7.88;;;3.15;;
27666;SDS011;15074;50.940;5.282;2022-10-30T11:33:58;7.45;;;3.47;;
27666;SDS011;15074;50.940;5.282;2022-10-30T11:36:37;6.95;;;3.42;;
27666;SDS011;15074;50.940;5.282;2022-10-30T11:39:08;7.22;;;3.00;;
27666;SDS011;15074;50.940;5.282;2022-10-30T11:44:18;6.07;;;3.67;;
27666;SDS011;15074;50.940;5.282;2022-10-30T11:46:43;9.30;;;3.55;;
27666;SDS011;15074;50.940;5.282;2022-10-30T11:49:22;5.30;;;3.40;;
27666;SDS011;15074;50.940;5.282;2022-10-30T11:51:57;14.60;;;3.40;;
27666;SDS011;15074;50.940;5.282;2022-10-30T11:54:23;13.90;;;3.38;;
27666;SDS011;15074;50.940;5.282;2022-10-30T11:56:50;7.30;;;3.37;;
27666;SDS011;15074;50.940;5.282;2022-10-30T12:02:19;7.63;;;3.47;;
27666;SDS011;15074;50.940;5.282;2022-10-30T12:04:50;13.65;;;3.28;;
27666;SDS011;15074;50.940;5.282;2022-10-30T12:07:23;4.65;;;3.85;;
27666;SDS011;15074;50.940;5.282;2022-10-30T12:09:58;5.40;;;2.90;;
27666;SDS011;15074;50.940;5.282;2022-10-30T12:12:32;11.23;;;3.50;;
27666;SDS011;15074;50.940;5.282;2022-10-30T12:15:07;7.45;;;3.30;;
27666;SDS011;15074;50.940;5.282;2022-10-30T12:17:39;9.43;;;3.60;;
27666;SDS011;15074;50.940;5.282;2022-10-30T12:20:14;11.90;;;3.28;;
27666;SDS011;15074;50.940;5.282;2022-10-30T12:22:40;7.20;;;3.17;;
27666;SDS011;15074;50.940;5.282;2022-10-30T12:25:22;5.88;;;3.15;;
27666;SDS011;15074;50.940;5.282;2022-10-30T12:27:58;6.90;;;2.97;;
27666;SDS011;15074;50.940;5.282;2022-10-30T12:30:36;8.63;;;3.25;;
27666;SDS011;15074;50.940;5.282;2022-10-30T12:33:19;6.10;;;3.25;;
27666;SDS011;15074;50.940;5.282;2022-10-30T12:35:48;7.70;;;2.88;;
27666;SDS011;15074;50.940;5.282;2022-10-30T12:38:28;10.25;;;3.58;;
27666;SDS011;15074;50.940;5.282;2022-10-30T12:43:38;6.05;;;2.70;;
27666;SDS011;15074;50.940;5.282;2022-10-30T12:46:14;6.72;;;3.47;;
27666;SDS011;15074;50.940;5.282;2022-10-30T12:57:29;8.15;;;2.85;;
27666;SDS011;15074;50.940;5.282;2022-10-30T13:05:56;8.63;;;2.95;;
27666;SDS011;15074;50.940;5.282;2022-10-30T13:11:10;7.53;;;3.10;;
27666;SDS011;15074;50.940;5.282;2022-10-30T13:13:56;10.02;;;3.15;;
27666;SDS011;15074;50.940;5.282;2022-10-30T13:16:28;6.60;;;2.72;;
27666;SDS011;15074;50.940;5.282;2022-10-30T13:18:56;9.60;;;3.10;;
27666;SDS011;15074;50.940;5.282;2022-10-30T13:21:45;7.78;;;3.28;;
27666;SDS011;15074;50.940;5.282;2022-10-30T13:27:17;9.30;;;3.88;;
27666;SDS011;15074;50.940;5.282;2022-10-30T13:29:55;6.53;;;4.55;;
27666;SDS011;15074;50.940;5.282;2022-10-30T13:40:38;9.68;;;3.53;;
27666;SDS011;15074;50.940;5.282;2022-10-30T13:51:28;12.70;;;3.97;;
27666;SDS011;15074;50.940;5.282;2022-10-30T13:54:25;10.45;;;3.95;;
27666;SDS011;15074;50.940;5.282;2022-10-30T13:57:11;11.15;;;4.35;;
27666;SDS011;15074;50.940;5.282;2022-10-30T14:00:05;6.47;;;3.78;;
27666;SDS011;15074;50.940;5.282;2022-10-30T14:03:15;7.68;;;4.10;;
27666;SDS011;15074;50.940;5.282;2022-10-30T14:08:39;8.82;;;4.47;;
27666;SDS011;15074;50.940;5.282;2022-10-30T14:11:31;6.72;;;3.72;;
27666;SDS011;15074;50.940;5.282;2022-10-30T14:14:22;9.23;;;3.40;;
27666;SDS011;15074;50.940;5.282;2022-10-30T14:23:04;9.80;;;3.63;;
27666;SDS011;15074;50.940;5.282;2022-10-30T14:25:32;9.77;;;3.30;;
27666;SDS011;15074;50.940;5.282;2022-10-30T14:27:57;6.18;;;3.47;;
27666;SDS011;15074;50.940;5.282;2022-10-30T14:30:23;8.50;;;3.92;;
27666;SDS011;15074;50.940;5.282;2022-10-30T14:32:52;10.98;;;3.28;;
27666;SDS011;15074;50.940;5.282;2022-10-30T14:35:32;6.20;;;3.38;;
27666;SDS011;15074;50.940;5.282;2022-10-30T14:46:18;7.15;;;4.40;;
27666;SDS011;15074;50.940;5.282;2022-10-30T14:51:34;7.95;;;4.13;;
27666;SDS011;15074;50.940;5.282;2022-10-30T14:54:23;7.63;;;3.65;;
27666;SDS011;15074;50.940;5.282;2022-10-30T14:56:59;7.13;;;4.03;;
27666;SDS011;15074;50.940;5.282;2022-10-30T14:59:32;11.65;;;3.83;;
27666;SDS011;15074;50.940;5.282;2022-10-30T15:04:44;9.45;;;4.55;;
27666;SDS011;15074;50.940;5.282;2022-10-30T15:07:44;9.73;;;4.28;;
27666;SDS011;15074;50.940;5.282;2022-10-30T15:10:24;10.23;;;4.60;;
27666;SDS011;15074;50.940;5.282;2022-10-30T15:15:43;8.38;;;4.28;;
27666;SDS011;15074;50.940;5.282;2022-10-30T15:18:17;15.45;;;5.40;;
27666;SDS011;15074;50.940;5.282;2022-10-30T15:20:48;11.98;;;4.43;;
27666;SDS011;15074;50.940;5.282;2022-10-30T15:23:28;14.55;;;5.47;;
27666;SDS011;15074;50.940;5.282;2022-10-30T15:26:00;15.07;;;4.65;;
27666;SDS011;15074;50.940;5.282;2022-10-30T15:28:29;11.63;;;4.45;;
27666;SDS011;15074;50.940;5.282;2022-10-30T15:35:52;6.47;;;4.60;;
27666;SDS011;15074;50.940;5.282;2022-10-30T15:38:19;13.23;;;5.03;;
27666;SDS011;15074;50.940;5.282;2022-10-30T15:40:45;13.85;;;4.68;;
27666;SDS011;15074;50.940;5.282;2022-10-30T15:43:11;7.55;;;4.75;;
27666;SDS011;15074;50.940;5.282;2022-10-30T15:45:40;7.53;;;5.03;;
27666;SDS011;15074;50.940;5.282;2022-10-30T15:50:44;9.88;;;4.45;;
27666;SDS011;15074;50.940;5.282;2022-10-30T15:53:56;8.07;;;4.95;;
27666;SDS011;15074;50.940;5.282;2022-10-30T15:56:35;20.20;;;5.88;;
27666;SDS011;15074;50.940;5.282;2022-10-30T15:59:27;11.65;;;5.18;;
27666;SDS011;15074;50.940;5.282;2022-10-30T16:02:15;15.18;;;5.18;;
27666;SDS011;15074;50.940;5.282;2022-10-30T16:04:46;7.95;;;4.85;;
27666;SDS011;15074;50.940;5.282;2022-10-30T16:07:26;11.63;;;5.13;;
27666;SDS011;15074;50.940;5.282;2022-10-30T16:09:54;8.82;;;4.90;;
27666;SDS011;15074;50.940;5.282;2022-10-30T16:12:25;8.75;;;5.13;;
27666;SDS011;15074;50.940;5.282;2022-10-30T16:14:55;10.52;;;4.55;;
27666;SDS011;15074;50.940;5.282;2022-10-30T16:17:26;9.68;;;5.00;;
27666;SDS011;15074;50.940;5.282;2022-10-30T16:19:53;11.88;;;4.82;;
27666;SDS011;15074;50.940;5.282;2022-10-30T16:22:32;9.45;;;4.68;;
27666;SDS011;15074;50.940;5.282;2022-10-30T16:25:00;20.95;;;4.85;;
27666;SDS011;15074;50.940;5.282;2022-10-30T16:27:31;9.70;;;5.03;;
27666;SDS011;15074;50.940;5.282;2022-10-30T16:29:57;10.40;;;4.07;;
27666;SDS011;15074;50.940;5.282;2022-10-30T16:32:24;8.73;;;4.97;;
27666;SDS011;15074;50.940;5.282;2022-10-30T16:34:54;9.32;;;5.13;;
27666;SDS011;15074;50.940;5.282;2022-10-30T16:37:40;15.80;;;4.97;;
27666;SDS011;15074;50.940;5.282;2022-10-30T16:40:14;10.05;;;5.45;;
27666;SDS011;15074;50.940;5.282;2022-10-30T16:43:04;8.65;;;4.45;;
27666;SDS011;15074;50.940;5.282;2022-10-30T16:45:55;7.47;;;4.47;;
27666;SDS011;15074;50.940;5.282;2022-10-30T16:48:45;7.70;;;4.23;;
27666;SDS011;15074;50.940;5.282;2022-10-30T16:51:18;10.40;;;4.40;;
27666;SDS011;15074;50.940;5.282;2022-10-30T16:53:45;12.40;;;5.75;;
27666;SDS011;15074;50.940;5.282;2022-10-30T16:56:45;8.57;;;4.90;;
27666;SDS011;15074;50.940;5.282;2022-10-30T16:59:12;9.85;;;5.35;;
27666;SDS011;15074;50.940;5.282;2022-10-30T17:01:42;10.80;;;4.82;;
27666;SDS011;15074;50.940;5.282;2022-10-30T17:04:11;10.05;;;5.40;;
27666;SDS011;15074;50.940;5.282;2022-10-30T17:06:40;9.32;;;5.40;;
27666;SDS011;15074;50.940;5.282;2022-10-30T17:09:29;11.30;;;6.18;;
27666;SDS011;15074;50.940;5.282;2022-10-30T17:17:33;13.63;;;6.75;;
27666;SDS011;15074;50.940;5.282;2022-10-30T17:20:10;12.43;;;6.20;;
27666;SDS011;15074;50.940;5.282;2022-10-30T17:23:38;15.02;;;6.00;;
27666;SDS011;15074;50.940;5.282;2022-10-30T17:25:45;14.20;;;6.28;;
27666;SDS011;15074;50.940;5.282;2022-10-30T17:28:29;10.57;;;6.07;;
27666;SDS011;15074;50.940;5.282;2022-10-30T17:33:42;15.57;;;6.45;;